Latest Coastal Weather Observations for Yeppoon

IDQ60701

Issued at 7:42 am EST Sunday 26 April 2015 (issued every 10 minutes, with the page automatically refreshed every 10 minutes)

About coastal observations | Map of coastal stations | Coastal observations for QLD | Marine services | Other Formats
Station Details ID: 033294 Name: YEPPOON THE ESPLANADE Lat: -23.14 Lon: 150.75 Height: 5.5 m
Data from the previous 72 hours. | See also: Recent months at Yeppoon
Date/Time
EST
Temp

°C
Wind Pressure Rain
since 9am
mm
Weather Cloud Vis
km
Sea
Height
m
Swell
Dir
 
Speed
knots
Gust
knots
hPa Trend Height
m
Period
s
Dir
26/07:30am 17.8 W 5 6 1014.4 - 0.0 - - - - - - -
26/07:00am 16.4 WSW 5 7 1013.9 - 0.0 - - - - - - -
26/06:30am 15.2 WSW 3 5 1013.5 - 0.0 - - - - - - -
26/06:00am 16.2 WSW 4 6 1012.8 - 0.0 - - - - - - -
26/05:30am 16.8 W 6 8 1012.5 - 0.0 - - - - - - -
26/05:00am 17.5 S 5 7 1012.2 - 0.0 - - - - - - -
26/04:30am 17.8 SW 5 7 1011.9 - 0.0 - - - - - - -
26/04:00am 19.0 SW 5 9 1011.6 - 0.0 - - - - - - -
26/03:30am 19.4 WSW 10 12 1011.3 - 0.0 - - - - - - -
26/03:00am 19.4 WSW 11 13 1011.3 - 0.0 - - - - - - -
26/02:30am 19.3 WSW 10 13 1011.2 - 0.0 - - - - - - -
26/02:00am 19.9 SW 7 10 1011.1 - 0.0 - - - - - - -
26/01:30am 19.5 WSW 5 9 1011.2 - 0.0 - - - - - - -
26/01:00am 19.6 WSW 7 9 1011.2 - 0.0 - - - - - - -
26/12:30am 19.7 WSW 5 7 1011.3 - 0.0 - - - - - - -
26/12:00am 19.5 SW 4 7 1011.4 - 0.0 - - - - - - -
 
Date/Time
EST
Temp

°C
Wind Pressure Rain
since 9am
mm
Weather Cloud Vis
km
Sea
Height
m
Swell
Dir
 
Speed
knots
Gust
knots
hPa Trend Height
m
Period
s
Dir
25/11:30pm 20.4 WSW 4 6 1011.4 - 0.0 - - - - - - -
25/11:00pm 20.8 W 5 7 1011.7 - 0.0 - - - - - - -
25/10:30pm 21.3 W 6 9 1011.8 - 0.0 - - - - - - -
25/10:00pm 21.5 W 7 9 1011.7 - 0.0 - - - - - - -
25/09:30pm 21.9 W 6 8 1011.8 - 0.0 - - - - - - -
25/09:00pm 21.8 CALM 0 4 1011.5 - 0.0 - - - - - - -
25/08:30pm 22.5 SW 3 4 1011.7 - 0.0 - - - - - - -
25/08:00pm 23.8 N 3 8 1011.3 - 0.0 - - - - - - -
25/07:30pm 24.1 NNW 5 8 1011.0 - 0.0 - - - - - - -
25/07:00pm 24.3 N 8 11 1010.4 - 0.0 - - - - - - -
25/06:30pm 24.5 N 9 11 1009.9 - 0.0 - - - - - - -
25/06:00pm 24.8 N 10 12 1009.6 - 0.0 - - - - - - -
25/05:30pm 25.3 N 11 12 1009.4 - 0.0 - - - - - - -
25/05:00pm 25.4 NNE 10 12 1009.1 - 0.0 - - - - - - -
25/04:30pm 25.2 NNE 9 10 1009.1 - 0.0 - - - - - - -
25/04:00pm 25.5 NNE 9 12 1008.8 - 0.0 - - - - - - -
25/03:30pm 25.6 NNE 11 13 1008.8 - 0.0 - - - - - - -
25/03:00pm 25.9 NNE 11 12 1008.8 - 0.0 - - - - - - -
25/02:30pm 26.3 NNE 8 10 1008.8 - 0.0 - - - - - - -
25/02:00pm 25.9 NE 10 11 1009.1 - 0.0 - - - - - - -
25/01:30pm 26.3 NE 9 11 1009.4 - 0.0 - - - - - - -
25/01:00pm 26.1 NE 9 10 1009.7 - 0.0 - - - - - - -
25/12:30pm 26.3 NE 8 9 1009.9 - 0.0 - - - - - - -
25/12:00pm 26.0 NE 7 8 1010.3 - 0.0 - - - - - - -
25/11:30am 25.6 NE 5 6 1010.8 - 0.0 - - - - - - -
25/11:00am 25.2 NE 5 6 1011.4 - 0.0 - - - - - - -
25/10:30am 25.0 NE 5 6 1011.7 - 0.0 - - - - - - -
25/10:00am 24.8 N 6 8 1011.9 - 0.0 - - - - - - -
25/09:30am 24.7 WSW 7 9 1011.9 - 0.0 - - - - - - -
25/09:00am 23.6 W 7 9 1012.1 - 0.0 - - - - - - -
25/08:30am 22.1 W 6 8 1012.1 - 0.0 - - - - - - -
25/08:00am 20.1 W 5 7 1011.9 - 0.0 - - - - - - -
25/07:30am 17.5 W 6 8 1011.5 - 0.0 - - - - - - -
25/07:00am 16.0 W 7 9 1011.4 - 0.0 - - - - - - -
25/06:30am 15.2 W 8 9 1011.1 - 0.0 - - - - - - -
25/06:00am 15.0 W 8 9 1010.8 - 0.0 - - - - - - -
25/05:30am 15.0 W 6 7 1010.7 - 0.0 - - - - - - -
25/05:00am 15.3 SW 4 4 1010.5 - 0.0 - - - - - - -
25/04:30am 15.4 WSW 4 6 1010.4 - 0.0 - - - - - - -
25/04:00am 15.3 WNW 5 6 1010.2 - 0.0 - - - - - - -
25/03:30am 15.8 WSW 3 5 1010.3 - 0.0 - - - - - - -
25/03:00am 15.4 W 4 5 1010.4 - 0.0 - - - - - - -
25/02:30am 15.9 W 5 5 1010.4 - 0.0 - - - - - - -
25/02:00am 15.9 W 7 8 1010.6 - 0.0 - - - - - - -
25/01:30am 16.7 WSW 3 5 1010.5 - 0.0 - - - - - - -
25/01:00am 16.8 W 4 6 1010.7 - 0.0 - - - - - - -
25/12:30am 17.5 W 6 7 1010.8 - 0.0 - - - - - - -
25/12:00am 17.2 W 4 5 1010.9 - 0.0 - - - - - - -
 
Date/Time
EST
Temp

°C
Wind Pressure Rain
since 9am
mm
Weather Cloud Vis
km
Sea
Height
m
Swell
Dir
 
Speed
knots
Gust
knots
hPa Trend Height
m
Period
s
Dir
24/11:30pm 17.5 W 4 5 1010.8 - 0.0 - - - - - - -
24/11:00pm 17.6 W 5 6 1010.9 - 0.0 - - - - - - -
24/10:30pm 17.7 W 4 5 1010.9 - 0.0 - - - - - - -
24/10:00pm 18.0 WSW 3 4 1011.1 - 0.0 - - - - - - -
24/09:30pm 18.6 SSW 4 5 1011.1 - 0.0 - - - - - - -
24/09:00pm 19.3 NE 1 4 1011.0 - 0.0 - - - - - - -
24/08:30pm 20.5 CALM 0 0 1010.9 - 0.0 - - - - - - -
24/08:00pm 21.9 WNW 3 5 1010.8 - 0.0 - - - - - - -
24/07:30pm 23.0 NNW 5 10 1010.4 - 0.0 - - - - - - -
24/07:00pm 23.0 N 7 11 1010.0 - 0.0 - - - - - - -
24/06:30pm 23.1 N 9 11 1009.5 - 0.0 - - - - - - -
24/06:00pm 23.4 N 10 12 1009.2 - 0.0 - - - - - - -
24/05:30pm 23.8 N 10 11 1009.0 - 0.0 - - - - - - -
24/05:00pm 24.4 N 11 12 1008.7 - 0.0 - - - - - - -
24/04:30pm 24.5 N 12 13 1008.4 - 0.0 - - - - - - -
24/04:00pm 24.7 NNE 10 11 1008.2 - 0.0 - - - - - - -
24/03:30pm 24.9 NNE 9 10 1008.2 - 0.0 - - - - - - -
24/03:00pm 24.9 NE 9 11 1008.4 - 0.0 - - - - - - -
24/02:30pm 24.9 NE 9 10 1008.5 - 0.0 - - - - - - -
24/02:00pm 25.5 ENE 7 9 1008.8 - 0.0 - - - - - - -
24/01:30pm 25.1 ENE 9 10 1009.1 - 0.0 - - - - - - -
24/01:00pm 24.6 E 9 11 1009.3 - 0.0 - - - - - - -
24/12:30pm 24.7 E 9 10 1009.8 - 0.0 - - - - - - -
24/12:00pm 24.4 ENE 9 10 1010.4 - 0.0 - - - - - - -
24/11:30am 25.4 ENE 9 12 1010.7 - 0.0 - - - - - - -
24/11:00am 26.4 N 3 6 1010.9 - 0.0 - - - - - - -
24/10:30am 25.7 W 4 8 1011.5 - 0.0 - - - - - - -
24/10:00am 24.6 WNW 6 8 1012.0 - 0.0 - - - - - - -
24/09:30am 23.2 WNW 5 7 1011.9 - 0.0 - - - - - - -
24/09:00am 21.1 W 7 9 1012.3 - 0.0 - - - - - - -
24/08:30am 19.3 W 9 11 1012.4 - 0.0 - - - - - - -
24/08:00am 18.0 W 9 11 1012.3 - 0.0 - - - - - - -
24/07:30am 17.1 WSW 9 12 1011.8 - 0.0 - - - - - - -
24/07:00am 15.1 WSW 7 9 1011.3 - 0.0 - - - - - - -
24/06:30am 13.5 W 8 9 1011.0 - 0.0 - - - - - - -
24/06:00am 13.4 W 7 8 1010.7 - 0.0 - - - - - - -
24/05:30am 13.5 W 9 10 1010.8 - 0.0 - - - - - - -
24/05:00am 13.7 W 8 9 1010.5 - 0.0 - - - - - - -
24/04:30am 14.0 W 7 9 1010.6 - 0.0 - - - - - - -
24/04:00am 14.4 W 7 9 1010.4 - 0.0 - - - - - - -
24/03:30am 15.0 W 8 10 1010.4 - 0.0 - - - - - - -
24/03:00am 15.0 WSW 5 6 1010.5 - 0.0 - - - - - - -
24/02:30am 15.1 W 8 9 1010.8 - 0.0 - - - - - - -
24/02:00am 15.5 W 7 9 1011.0 - 0.0 - - - - - - -
24/01:30am 15.3 W 6 8 1011.1 - 0.0 - - - - - - -
24/01:00am 15.5 WSW 5 7 1011.4 - 0.0 - - - - - - -
24/12:30am 15.5 WSW 5 6 1011.5 - 0.0 - - - - - - -
24/12:00am 15.3 W 6 7 1011.7 - 0.0 - - - - - - -
 
Date/Time
EST
Temp

°C
Wind Pressure Rain
since 9am
mm
Weather Cloud Vis
km
Sea
Height
m
Swell
Dir
 
Speed
knots
Gust
knots
hPa Trend Height
m
Period
s
Dir
23/11:30pm 15.6 W 5 6 1011.9 - 0.0 - - - - - - -
23/11:00pm 15.7 WSW 5 6 1012.0 - 0.0 - - - - - - -
23/10:30pm 16.0 W 6 7 1011.8 - 0.0 - - - - - - -
23/10:00pm 16.6 W 6 8 1011.9 - 0.0 - - - - - - -
23/09:30pm 16.4 W 7 9 1011.8 - 0.0 - - - - - - -
23/09:00pm 16.5 W 5 7 1011.9 - 0.0 - - - - - - -
23/08:30pm 16.8 WSW 3 5 1011.8 - 0.0 - - - - - - -
23/08:00pm 17.4 SSW 3 4 1011.6 - 0.0 - - - - - - -
23/07:30pm 17.9 SSW 4 5 1011.3 - 0.0 - - - - - - -
23/07:00pm 19.8 N 4 5 1010.9 - 0.0 - - - - - - -
23/06:30pm 21.1 N 6 7 1010.3 - 0.0 - - - - - - -
23/06:00pm 21.4 N 6 9 1010.1 - 0.0 - - - - - - -
23/05:30pm 22.3 NNE 7 9 1009.8 - 0.0 - - - - - - -
23/05:00pm 22.4 NNE 7 9 1009.6 - 0.0 - - - - - - -
23/04:30pm 22.5 NE 7 9 1009.3 - 0.0 - - - - - - -
23/04:00pm 22.8 NE 6 8 1009.2 - 0.0 - - - - - - -
23/03:30pm 22.9 NE 7 9 1009.4 - 0.0 - - - - - - -
23/03:00pm 23.4 NE 8 9 1009.7 - 0.0 - - - - - - -
23/02:30pm 23.1 NE 7 9 1009.9 - 0.0 - - - - - - -
23/02:00pm 22.9 ENE 8 9 1010.2 - 0.0 - - - - - - -
23/01:30pm 22.9 E 10 11 1010.7 - 0.0 - - - - - - -
23/01:00pm 23.0 E 11 14 1011.2 - 0.0 - - - - - - -
23/12:30pm 23.0 E 11 14 1011.8 - 0.0 - - - - - - -
23/12:00pm 22.9 ESE 10 13 1012.3 - 0.0 - - - - - - -
23/11:30am 22.6 E 11 13 1012.9 - 0.0 - - - - - - -
23/11:00am 22.6 E 10 12 1013.5 - 0.0 - - - - - - -
23/10:30am 22.4 E 9 12 1013.9 - 0.0 - - - - - - -
23/10:00am 22.3 SSE 7 10 1014.3 - 0.0 - - - - - - -
23/09:30am 21.7 SSE 6 9 1014.5 - 0.0 - - - - - - -
23/09:00am 20.5 WSW 5 9 1014.5 - 0.0 - - - - - - -
23/08:30am 18.2 W 5 7 1014.4 - 0.0 - - - - - - -
23/08:00am 16.5 W 8 9 1014.3 - 0.0 - - - - - - -

Other Formats:

Comma delimited format used in spreadsheet applications
http://www.bom.gov.au/fwo/IDQ60701/IDQ60701.94373.axf

JavaScript Object Notation format (JSON) in row-major order
http://www.bom.gov.au/fwo/IDQ60701/IDQ60701.94373.json